San Lorenzo de El Escorial, Spain
Current Conditions -  °F | °C
As of 9:30 PM on Tuesday 21 Oct 2014 (Local Time) from LEVS Reporting Station
Clear Clear  
Wind Chill: 21°   Ceiling: Unl
Heat Index: 21°   Visibility: 6mi
Dew Point: 12°   Wind: 8mph
Humidity: 56%   Direction: 280°W
Pressure: 30.36"   Gusts: NA
Location:  40.59°N, 4.15°W
Report Text: LEVS 211930Z 28007KT CAVOK 21/12 Q1028
Loading
Personal Weather Stations






























Interactive Weather Map
Tropical Storm Tracking
New forecast layout! Learn more

10-Day Weather Forecast

Advertisements
Track Severe Weather on mobile